createdAt,value
2023-01-31T00:01:39.958Z,6.00
2023-01-31T00:04:12.483Z,6.00
2023-01-31T00:06:43.082Z,6.00
2023-01-31T00:09:11.662Z,5.90
2023-01-31T00:11:39.301Z,5.90
2023-01-31T00:14:10.380Z,6.00
2023-01-31T00:16:38.411Z,6.00
2023-01-31T00:19:05.840Z,6.00
2023-01-31T00:21:34.120Z,6.10
2023-01-31T00:24:01.741Z,5.90
2023-01-31T00:26:31.417Z,5.80
2023-01-31T00:29:00.941Z,5.80
2023-01-31T00:31:31.531Z,5.80
2023-01-31T00:33:59.023Z,5.80
2023-01-31T00:36:28.977Z,5.80
2023-01-31T00:39:00.412Z,5.80
2023-01-31T00:41:30.162Z,5.80
2023-01-31T00:43:57.734Z,5.80
2023-01-31T00:46:26.002Z,5.60
2023-01-31T00:48:53.832Z,5.60
2023-01-31T00:51:21.466Z,5.50
2023-01-31T00:53:50.175Z,5.40
2023-01-31T00:56:22.923Z,5.40
2023-01-31T00:58:50.421Z,5.50
2023-01-31T01:01:21.915Z,5.40
2023-01-31T01:03:49.403Z,5.40
2023-01-31T01:06:17.270Z,5.40
2023-01-31T01:08:45.800Z,5.30
2023-01-31T01:11:15.703Z,5.40
2023-01-31T01:13:44.457Z,5.40
2023-01-31T01:16:14.512Z,5.40
2023-01-31T01:18:42.257Z,5.40
2023-01-31T01:21:12.028Z,5.30
2023-01-31T01:23:40.724Z,5.30
2023-01-31T01:26:14.888Z,5.40
2023-01-31T01:28:43.269Z,5.40
2023-01-31T01:31:12.411Z,5.40
2023-01-31T01:33:39.645Z,5.30
2023-01-31T01:36:09.040Z,5.20
2023-01-31T01:38:37.114Z,5.20
2023-01-31T01:41:05.491Z,5.20
2023-01-31T01:43:46.280Z,5.10
2023-01-31T01:46:18.859Z,5.10
2023-01-31T01:48:50.359Z,5.00
2023-01-31T01:51:19.339Z,5.00
2023-01-31T01:53:51.250Z,5.20
2023-01-31T01:56:22.073Z,5.20
2023-01-31T01:58:57.807Z,5.30
2023-01-31T02:01:29.953Z,5.40
2023-01-31T02:03:57.315Z,5.50
2023-01-31T02:06:24.641Z,5.60
2023-01-31T02:08:51.876Z,5.60
2023-01-31T02:11:25.069Z,5.70
2023-01-31T02:14:05.981Z,5.70
2023-01-31T02:16:33.387Z,5.70
2023-01-31T02:19:01.041Z,5.70
2023-01-31T02:22:06.830Z,5.60
2023-01-31T02:25:17.039Z,5.60
2023-01-31T02:28:14.563Z,5.70
2023-01-31T02:31:28.478Z,5.60
2023-01-31T02:34:03.983Z,5.50
2023-01-31T02:36:45.815Z,5.60
2023-01-31T02:39:26.612Z,5.50
2023-01-31T02:42:02.615Z,5.40
2023-01-31T02:44:55.950Z,5.40
2023-01-31T02:47:39.870Z,5.40
2023-01-31T02:50:14.506Z,5.20
2023-01-31T02:52:50.142Z,5.10
2023-01-31T02:55:41.772Z,5.20
2023-01-31T02:58:12.462Z,5.20
2023-01-31T03:00:45.464Z,5.20
2023-01-31T03:03:20.832Z,5.20
2023-01-31T03:06:36.627Z,5.10
2023-01-31T03:09:11.449Z,5.10
2023-01-31T03:11:47.999Z,4.90
2023-01-31T03:14:27.298Z,4.50
2023-01-31T03:17:19.983Z,4.40
2023-01-31T03:19:53.762Z,4.20
2023-01-31T03:22:26.900Z,4.20
2023-01-31T03:24:56.874Z,4.20
2023-01-31T03:27:24.903Z,4.10
2023-01-31T03:29:53.655Z,4.20
2023-01-31T03:32:26.804Z,4.10
2023-01-31T03:34:55.072Z,4.20
2023-01-31T03:37:30.764Z,4.20
2023-01-31T03:40:05.553Z,4.20
2023-01-31T03:42:43.278Z,4.30
2023-01-31T03:45:15.887Z,4.10
2023-01-31T03:47:47.303Z,4.10
2023-01-31T03:50:20.733Z,4.10
2023-01-31T03:52:56.458Z,4.00
2023-01-31T03:55:32.425Z,3.80
2023-01-31T03:58:01.587Z,3.80
2023-01-31T04:00:29.381Z,3.90
2023-01-31T04:03:05.154Z,4.00
2023-01-31T04:05:33.326Z,3.90
2023-01-31T04:08:00.754Z,3.90
2023-01-31T04:10:29.060Z,3.90
2023-01-31T04:12:56.190Z,3.90
2023-01-31T04:15:23.743Z,3.80
2023-01-31T04:17:50.677Z,3.90
2023-01-31T04:20:17.823Z,4.00
2023-01-31T04:22:44.758Z,4.00
2023-01-31T04:25:12.430Z,3.90
2023-01-31T04:27:40.834Z,3.80
2023-01-31T04:30:09.708Z,3.80
2023-01-31T04:32:36.725Z,3.70
2023-01-31T04:35:04.556Z,3.60
2023-01-31T04:37:31.849Z,3.50
2023-01-31T04:39:58.764Z,3.50
2023-01-31T04:42:25.636Z,3.60
2023-01-31T04:44:53.919Z,3.70
2023-01-31T04:47:21.077Z,3.70
2023-01-31T04:49:47.961Z,3.70
2023-01-31T04:52:14.979Z,3.70
2023-01-31T04:54:42.458Z,3.60
2023-01-31T04:57:09.400Z,3.50
2023-01-31T04:59:36.509Z,3.30
2023-01-31T05:02:04.810Z,3.20
2023-01-31T05:04:31.908Z,3.10
2023-01-31T05:06:58.855Z,2.90
2023-01-31T05:09:26.241Z,2.90
2023-01-31T05:11:53.250Z,2.90
2023-01-31T05:14:21.260Z,3.00
2023-01-31T05:16:48.422Z,3.10
2023-01-31T05:19:17.082Z,3.00
2023-01-31T05:21:59.156Z,3.00
2023-01-31T05:24:29.379Z,3.00
2023-01-31T05:27:01.603Z,3.10
2023-01-31T05:29:30.871Z,3.20
2023-01-31T05:32:00.645Z,3.10
2023-01-31T05:34:32.823Z,3.00
2023-01-31T05:37:00.942Z,3.10
2023-01-31T05:39:28.354Z,3.20
2023-01-31T05:41:55.435Z,3.20
2023-01-31T05:44:22.988Z,3.20
2023-01-31T05:46:50.220Z,3.20
2023-01-31T05:49:17.376Z,2.90
2023-01-31T05:51:45.875Z,2.90
2023-01-31T05:54:13.057Z,2.90
2023-01-31T05:56:40.383Z,2.90
2023-01-31T05:59:07.336Z,2.80
2023-01-31T06:01:34.542Z,2.80
2023-01-31T06:04:01.968Z,2.80
2023-01-31T06:06:28.977Z,2.90
2023-01-31T06:08:57.352Z,3.00
2023-01-31T06:11:25.309Z,3.10
2023-01-31T06:13:52.542Z,3.10
2023-01-31T06:16:19.531Z,3.20
2023-01-31T06:18:46.541Z,3.20
2023-01-31T06:21:13.470Z,3.10
2023-01-31T06:23:41.606Z,3.20
2023-01-31T06:26:10.089Z,3.10
2023-01-31T06:28:37.695Z,3.10
2023-01-31T06:31:08.668Z,3.10
2023-01-31T06:33:46.164Z,3.00
2023-01-31T06:36:15.982Z,3.00
2023-01-31T06:38:44.434Z,3.10
2023-01-31T06:41:13.133Z,3.10
2023-01-31T06:43:40.334Z,3.20
2023-01-31T06:46:07.508Z,3.10
2023-01-31T06:48:34.567Z,3.10
2023-01-31T06:51:01.750Z,3.10
2023-01-31T06:53:28.760Z,3.10
2023-01-31T06:55:56.360Z,3.00
2023-01-31T06:58:24.926Z,3.10
2023-01-31T07:00:51.904Z,3.20
2023-01-31T07:03:19.610Z,3.00
2023-01-31T07:05:47.205Z,3.00
2023-01-31T07:08:14.624Z,3.10
2023-01-31T07:10:41.969Z,3.10
2023-01-31T07:13:09.306Z,3.00
2023-01-31T07:15:37.591Z,2.90
2023-01-31T07:18:06.220Z,2.60
2023-01-31T07:20:33.428Z,2.60
2023-01-31T07:23:00.804Z,2.60
2023-01-31T07:25:28.092Z,2.60
2023-01-31T07:27:55.018Z,2.70
2023-01-31T07:30:22.724Z,2.90
2023-01-31T07:32:51.289Z,3.10
2023-01-31T07:35:18.991Z,3.30
2023-01-31T07:37:46.694Z,3.40
2023-01-31T07:40:15.440Z,3.60
2023-01-31T07:42:42.920Z,3.70
2023-01-31T07:45:22.867Z,3.70
2023-01-31T07:47:51.988Z,3.80
2023-01-31T07:50:19.635Z,3.80
2023-01-31T07:52:49.174Z,3.90
2023-01-31T07:55:16.466Z,4.00
2023-01-31T07:57:43.631Z,4.00
2023-01-31T08:00:33.085Z,4.10
2023-01-31T08:03:20.362Z,4.10
2023-01-31T08:05:47.800Z,4.10
2023-01-31T08:08:15.271Z,4.20
2023-01-31T08:10:42.460Z,4.20
2023-01-31T08:13:11.742Z,4.10
2023-01-31T08:15:38.769Z,4.10
2023-01-31T08:18:07.173Z,4.20
2023-01-31T08:20:37.415Z,4.20
2023-01-31T08:23:04.677Z,4.30
2023-01-31T08:25:32.230Z,4.20
2023-01-31T08:28:00.191Z,4.30
2023-01-31T08:30:27.879Z,4.30
2023-01-31T08:32:55.260Z,4.30
2023-01-31T08:35:25.839Z,4.40
2023-01-31T08:37:55.321Z,4.40
2023-01-31T08:40:25.721Z,4.40
2023-01-31T08:42:56.226Z,4.40
2023-01-31T08:45:23.768Z,4.50
2023-01-31T08:47:54.973Z,4.40
2023-01-31T08:50:28.045Z,4.50
2023-01-31T08:52:55.683Z,4.50
2023-01-31T08:55:24.274Z,4.50
2023-01-31T08:57:59.803Z,4.60
2023-01-31T09:00:27.955Z,4.70
2023-01-31T09:02:56.572Z,4.60
2023-01-31T09:05:26.510Z,4.60
2023-01-31T09:07:54.086Z,4.60
2023-01-31T09:10:22.587Z,4.60
2023-01-31T09:12:49.534Z,4.70
2023-01-31T09:15:17.069Z,4.70
2023-01-31T09:17:44.377Z,4.70
2023-01-31T09:20:11.952Z,4.80
2023-01-31T09:22:40.670Z,4.80
2023-01-31T09:25:09.100Z,4.90
2023-01-31T09:27:38.608Z,4.90
2023-01-31T09:30:08.660Z,5.00
2023-01-31T09:32:35.971Z,5.00
2023-01-31T09:35:03.000Z,5.10
2023-01-31T09:37:30.874Z,5.10
2023-01-31T09:39:59.122Z,5.10
2023-01-31T09:42:32.003Z,5.10
2023-01-31T09:45:03.600Z,5.10
2023-01-31T09:47:37.027Z,5.10
2023-01-31T09:50:13.781Z,5.10
2023-01-31T09:52:41.026Z,5.10
2023-01-31T09:55:17.116Z,5.00
2023-01-31T09:57:53.941Z,5.00
2023-01-31T10:00:28.438Z,5.00
2023-01-31T10:03:18.328Z,5.00
2023-01-31T10:05:52.170Z,5.00
2023-01-31T10:08:41.045Z,5.00
2023-01-31T10:11:15.777Z,5.10
2023-01-31T10:13:49.850Z,5.00
2023-01-31T10:16:25.221Z,5.10
2023-01-31T10:18:58.311Z,5.10
2023-01-31T10:21:33.091Z,5.10
2023-01-31T10:24:05.996Z,5.20
2023-01-31T10:26:39.786Z,5.30
2023-01-31T10:29:16.597Z,5.30
2023-01-31T10:31:49.697Z,5.30
2023-01-31T10:34:23.293Z,5.50
2023-01-31T10:36:56.451Z,5.40
2023-01-31T10:39:29.395Z,5.50
2023-01-31T10:42:16.147Z,5.50
2023-01-31T10:44:51.493Z,5.60
2023-01-31T10:47:21.012Z,5.50
2023-01-31T10:49:49.991Z,5.50
2023-01-31T10:52:40.585Z,5.50
2023-01-31T10:55:29.284Z,5.50
2023-01-31T10:57:59.187Z,5.50
2023-01-31T11:00:30.714Z,5.50
2023-01-31T11:02:59.062Z,5.60
2023-01-31T11:05:29.064Z,5.60
2023-01-31T11:07:57.608Z,5.60
2023-01-31T11:10:27.603Z,5.50
2023-01-31T11:13:01.645Z,5.60
2023-01-31T11:15:36.107Z,5.70
2023-01-31T11:18:03.907Z,5.70
2023-01-31T11:20:38.617Z,5.70
2023-01-31T11:23:07.449Z,5.70
2023-01-31T11:25:35.122Z,5.80
2023-01-31T11:28:19.850Z,5.90
2023-01-31T11:30:50.867Z,5.90
2023-01-31T11:33:42.153Z,6.00
2023-01-31T11:36:11.987Z,5.90
2023-01-31T11:38:39.143Z,5.90
2023-01-31T11:41:29.301Z,6.00
2023-01-31T11:44:15.616Z,6.00
2023-01-31T11:46:52.198Z,6.00
2023-01-31T11:49:29.983Z,6.00
2023-01-31T11:52:03.247Z,6.00
2023-01-31T11:54:34.156Z,6.10
2023-01-31T11:57:02.384Z,6.10
2023-01-31T11:59:31.553Z,6.20
2023-01-31T12:02:00.965Z,6.20
2023-01-31T12:04:33.115Z,6.20
2023-01-31T12:07:04.646Z,6.20
2023-01-31T12:09:43.343Z,6.20
2023-01-31T12:12:30.184Z,6.20
2023-01-31T12:15:03.219Z,6.20
2023-01-31T12:17:34.265Z,6.20
2023-01-31T12:20:28.051Z,6.30
2023-01-31T12:23:11.456Z,6.20
2023-01-31T12:26:01.705Z,6.30
2023-01-31T12:28:33.692Z,6.20
2023-01-31T12:31:40.368Z,6.20
2023-01-31T12:34:29.322Z,6.30
2023-01-31T12:37:17.621Z,6.30
2023-01-31T12:40:22.792Z,6.30
2023-01-31T12:42:58.069Z,6.30
2023-01-31T12:45:44.458Z,6.30
2023-01-31T12:48:48.527Z,6.40
2023-01-31T12:51:30.740Z,6.40
2023-01-31T12:54:16.490Z,6.40
2023-01-31T12:57:00.290Z,6.40
2023-01-31T12:59:41.275Z,6.50
2023-01-31T13:02:27.795Z,6.50
2023-01-31T13:05:04.350Z,6.50
2023-01-31T13:07:37.570Z,6.50
2023-01-31T13:10:21.467Z,6.60
2023-01-31T13:12:49.415Z,6.60
2023-01-31T13:15:28.027Z,6.60
2023-01-31T13:18:00.985Z,6.60
2023-01-31T13:20:35.731Z,6.70
2023-01-31T13:23:09.024Z,6.70
2023-01-31T13:25:40.828Z,6.70
2023-01-31T13:28:16.687Z,6.80
2023-01-31T13:30:51.931Z,6.70
2023-01-31T13:33:30.595Z,6.80
2023-01-31T13:36:09.049Z,6.80
2023-01-31T13:38:42.279Z,6.80
2023-01-31T13:41:18.399Z,6.90
2023-01-31T13:43:45.300Z,7.00
2023-01-31T13:46:14.793Z,7.00
2023-01-31T13:48:47.790Z,7.00
2023-01-31T13:51:20.964Z,7.00
2023-01-31T13:53:53.539Z,7.00
2023-01-31T13:56:25.821Z,7.00
2023-01-31T13:58:55.317Z,6.90
2023-01-31T14:01:24.908Z,6.90
2023-01-31T14:04:31.295Z,6.90
2023-01-31T14:07:17.716Z,7.00
2023-01-31T14:10:28.348Z,7.00
2023-01-31T14:13:26.634Z,6.90
2023-01-31T14:15:56.625Z,6.90
2023-01-31T14:18:45.341Z,6.90
2023-01-31T14:21:51.518Z,6.80
2023-01-31T14:25:13.487Z,6.80
2023-01-31T14:28:01.531Z,6.80
2023-01-31T14:30:42.097Z,6.80
2023-01-31T14:33:30.550Z,6.80
2023-01-31T14:36:34.573Z,6.70
2023-01-31T14:39:47.944Z,6.70
2023-01-31T14:43:06.963Z,6.70
2023-01-31T14:45:51.552Z,6.70
2023-01-31T14:48:38.827Z,6.70
2023-01-31T14:51:24.475Z,6.70
2023-01-31T14:54:30.618Z,6.60
2023-01-31T14:57:26.734Z,6.60
2023-01-31T14:59:58.605Z,6.70
2023-01-31T15:02:47.524Z,6.70
2023-01-31T15:05:19.579Z,6.60
2023-01-31T15:08:10.128Z,6.60
2023-01-31T15:10:58.260Z,6.60
2023-01-31T15:13:43.844Z,6.70
2023-01-31T15:16:26.047Z,6.70
2023-01-31T15:19:07.624Z,6.60
2023-01-31T15:21:43.099Z,6.60
2023-01-31T15:24:19.505Z,6.60
2023-01-31T15:26:49.732Z,6.60
2023-01-31T15:29:23.308Z,6.60
2023-01-31T15:31:55.812Z,6.60
2023-01-31T15:34:31.341Z,6.60
2023-01-31T15:37:04.806Z,6.60
2023-01-31T15:39:40.516Z,6.70
2023-01-31T15:42:24.268Z,6.70
2023-01-31T15:44:51.326Z,6.60
2023-01-31T15:47:23.985Z,6.70
2023-01-31T15:49:50.987Z,6.70
2023-01-31T15:52:20.739Z,6.70
2023-01-31T15:54:56.507Z,6.70
2023-01-31T15:57:28.380Z,6.60
2023-01-31T15:59:56.668Z,6.70
2023-01-31T16:02:30.275Z,6.70
2023-01-31T16:04:57.896Z,6.70
2023-01-31T16:07:29.298Z,6.70
2023-01-31T16:09:57.865Z,6.70
2023-01-31T16:12:26.169Z,6.70
2023-01-31T16:14:59.307Z,6.70
2023-01-31T16:17:29.022Z,6.70
2023-01-31T16:19:56.376Z,6.70
2023-01-31T16:22:27.497Z,6.70
2023-01-31T16:24:56.949Z,6.70
2023-01-31T16:27:25.681Z,6.70
2023-01-31T16:29:57.021Z,6.70
2023-01-31T16:32:29.852Z,6.70
2023-01-31T16:34:59.912Z,6.70
2023-01-31T16:37:34.253Z,6.70
2023-01-31T16:40:07.367Z,6.70
2023-01-31T16:42:35.936Z,6.70
2023-01-31T16:45:04.043Z,6.70
2023-01-31T16:47:50.723Z,6.70
2023-01-31T16:50:43.205Z,6.80
2023-01-31T16:53:25.316Z,6.80
2023-01-31T16:56:22.051Z,6.70
2023-01-31T16:58:53.202Z,6.80
2023-01-31T17:01:24.081Z,6.80
2023-01-31T17:04:13.891Z,6.80
2023-01-31T17:06:51.690Z,6.80
2023-01-31T17:09:21.544Z,6.80
2023-01-31T17:11:48.763Z,6.80
2023-01-31T17:14:15.755Z,6.80
2023-01-31T17:16:42.750Z,6.80
2023-01-31T17:19:11.741Z,6.80
2023-01-31T17:21:41.783Z,6.80
2023-01-31T17:24:14.329Z,6.80
2023-01-31T17:26:41.543Z,6.90
2023-01-31T17:29:08.743Z,6.80
2023-01-31T17:31:35.840Z,6.80
2023-01-31T17:34:03.744Z,6.80
2023-01-31T17:36:32.048Z,6.80
2023-01-31T17:38:59.167Z,6.90
2023-01-31T17:41:26.148Z,6.80
2023-01-31T17:43:53.309Z,6.90
2023-01-31T17:46:20.379Z,6.90
2023-01-31T17:48:47.418Z,6.90
2023-01-31T17:51:14.455Z,6.90
2023-01-31T17:53:50.577Z,6.90
2023-01-31T17:56:18.732Z,6.90
2023-01-31T17:58:45.974Z,6.90
2023-01-31T18:01:14.419Z,7.00
2023-01-31T18:03:41.768Z,7.00
2023-01-31T18:06:10.127Z,7.00
2023-01-31T18:08:37.383Z,7.00
2023-01-31T18:11:07.894Z,7.00
2023-01-31T18:13:37.782Z,7.00
2023-01-31T18:16:06.951Z,7.00
2023-01-31T18:18:35.544Z,7.00
2023-01-31T18:21:05.502Z,7.00
2023-01-31T18:23:32.844Z,7.00
2023-01-31T18:26:00.094Z,7.10
2023-01-31T18:28:28.409Z,7.10
2023-01-31T18:30:55.539Z,7.00
2023-01-31T18:33:23.943Z,7.10
2023-01-31T18:35:57.294Z,7.10
2023-01-31T18:38:24.824Z,7.10
2023-01-31T18:40:52.589Z,7.10
2023-01-31T18:43:19.811Z,7.10
2023-01-31T18:45:48.297Z,7.10
2023-01-31T18:48:15.345Z,7.10
2023-01-31T18:50:42.550Z,7.10
2023-01-31T18:53:09.592Z,7.00
2023-01-31T18:55:36.570Z,7.00
2023-01-31T18:58:04.049Z,7.00
2023-01-31T19:00:31.162Z,7.00
2023-01-31T19:02:59.598Z,7.00
2023-01-31T19:05:26.935Z,7.00
2023-01-31T19:07:54.078Z,7.00
2023-01-31T19:10:21.110Z,6.90
2023-01-31T19:12:48.303Z,6.90
2023-01-31T19:15:15.407Z,7.00
2023-01-31T19:17:42.367Z,7.00
2023-01-31T19:20:12.833Z,7.00
2023-01-31T19:22:40.026Z,7.00
2023-01-31T19:25:09.919Z,7.10
2023-01-31T19:27:36.936Z,7.20
2023-01-31T19:30:05.371Z,7.20
2023-01-31T19:32:33.413Z,7.20
2023-01-31T19:35:00.344Z,7.20
2023-01-31T19:37:28.877Z,7.20
2023-01-31T19:39:55.810Z,7.20
2023-01-31T19:42:23.669Z,7.20
2023-01-31T19:44:50.714Z,7.20
2023-01-31T19:47:18.290Z,7.10
2023-01-31T19:49:45.377Z,7.10
2023-01-31T19:52:12.301Z,7.00
2023-01-31T19:54:41.287Z,7.10
2023-01-31T19:57:08.332Z,7.10
2023-01-31T19:59:36.124Z,7.10
2023-01-31T20:02:03.208Z,7.10
2023-01-31T20:04:32.312Z,7.10
2023-01-31T20:06:59.480Z,7.10
2023-01-31T20:09:26.597Z,7.10
2023-01-31T20:11:55.143Z,7.10
2023-01-31T20:14:22.397Z,7.00
2023-01-31T20:16:49.696Z,7.00
2023-01-31T20:19:18.071Z,7.00
2023-01-31T20:21:46.780Z,7.00
2023-01-31T20:24:13.731Z,7.00
2023-01-31T20:26:40.880Z,7.00
2023-01-31T20:29:09.740Z,7.00
2023-01-31T20:31:36.744Z,7.00
2023-01-31T20:34:03.872Z,7.00
2023-01-31T20:36:30.947Z,7.00
2023-01-31T20:38:57.870Z,7.00
2023-01-31T20:41:25.081Z,7.10
2023-01-31T20:43:53.963Z,7.10
2023-01-31T20:46:22.403Z,7.10
2023-01-31T20:48:49.598Z,7.10
2023-01-31T20:51:16.728Z,7.10
2023-01-31T20:53:43.677Z,7.10
2023-01-31T20:56:11.176Z,7.10
2023-01-31T20:58:40.454Z,7.20
2023-01-31T21:01:09.817Z,7.20
2023-01-31T21:03:38.255Z,7.20
2023-01-31T21:06:07.232Z,7.20
2023-01-31T21:08:37.634Z,7.20
2023-01-31T21:11:08.474Z,7.10
2023-01-31T21:13:36.370Z,7.20
2023-01-31T21:16:07.130Z,7.20
2023-01-31T21:18:38.363Z,7.10
2023-01-31T21:21:07.556Z,7.00
2023-01-31T21:23:37.794Z,7.10
2023-01-31T21:26:06.991Z,7.30
2023-01-31T21:28:34.884Z,7.30
2023-01-31T21:31:04.751Z,7.30
2023-01-31T21:33:32.182Z,7.20
2023-01-31T21:36:08.569Z,7.20
2023-01-31T21:38:35.881Z,7.20
2023-01-31T21:41:21.709Z,7.20
2023-01-31T21:43:48.645Z,7.10
2023-01-31T21:46:15.662Z,7.10
2023-01-31T21:48:43.046Z,7.10
2023-01-31T21:51:14.889Z,7.10
2023-01-31T21:53:42.360Z,7.20
2023-01-31T21:56:12.484Z,7.10
2023-01-31T21:58:40.748Z,7.10
2023-01-31T22:01:10.397Z,7.20
2023-01-31T22:03:39.667Z,7.10
2023-01-31T22:06:09.858Z,7.10
2023-01-31T22:08:38.358Z,7.20
2023-01-31T22:11:07.593Z,7.20
2023-01-31T22:13:35.445Z,7.20
2023-01-31T22:16:05.849Z,7.20
2023-01-31T22:18:33.530Z,7.20
2023-01-31T22:21:02.964Z,7.30
2023-01-31T22:23:30.577Z,7.30
2023-01-31T22:26:03.618Z,7.30
2023-01-31T22:28:31.192Z,7.30
2023-01-31T22:30:59.439Z,7.20
2023-01-31T22:33:26.728Z,7.20
2023-01-31T22:35:53.790Z,7.10
2023-01-31T22:38:20.909Z,7.10
2023-01-31T22:40:48.075Z,7.10
2023-01-31T22:43:18.858Z,7.10
2023-01-31T22:45:47.142Z,7.10
2023-01-31T22:48:16.111Z,7.10
2023-01-31T22:50:43.617Z,7.10
2023-01-31T22:53:11.359Z,7.00
2023-01-31T22:55:38.913Z,7.00
2023-01-31T22:58:06.152Z,7.00
2023-01-31T23:00:36.510Z,7.00
2023-01-31T23:03:04.625Z,7.00
2023-01-31T23:05:31.964Z,7.10
2023-01-31T23:07:59.205Z,7.10
2023-01-31T23:10:27.145Z,7.10
2023-01-31T23:12:54.113Z,7.10
2023-01-31T23:15:21.100Z,7.10
2023-01-31T23:17:49.676Z,7.10
2023-01-31T23:20:20.336Z,7.10
2023-01-31T23:22:52.531Z,7.10
2023-01-31T23:25:20.873Z,7.10
2023-01-31T23:27:48.263Z,7.10
2023-01-31T23:30:18.104Z,7.20
2023-01-31T23:32:45.766Z,7.20
2023-01-31T23:35:14.226Z,7.20
2023-01-31T23:37:41.406Z,7.10
2023-01-31T23:40:10.546Z,7.20
2023-01-31T23:42:37.600Z,7.20
2023-01-31T23:45:06.381Z,7.30
2023-01-31T23:47:33.364Z,7.30
2023-01-31T23:50:00.307Z,7.20
2023-01-31T23:52:28.729Z,7.30
2023-01-31T23:54:55.662Z,7.20
2023-01-31T23:57:22.741Z,7.30
2023-01-31T23:59:49.710Z,7.30
